createdAt,value
2019-05-11T00:01:03.872Z,88.47
2019-05-11T00:03:32.845Z,90.01
2019-05-11T00:06:01.992Z,87.60
2019-05-11T00:08:30.671Z,86.88
2019-05-11T00:10:59.581Z,87.98
2019-05-11T00:13:28.601Z,90.96
2019-05-11T00:15:57.569Z,88.60
2019-05-11T00:18:26.485Z,89.58
2019-05-11T00:20:55.271Z,90.25
2019-05-11T00:23:24.234Z,90.28
2019-05-11T00:25:52.713Z,89.76
2019-05-11T00:28:21.280Z,91.04
2019-05-11T00:30:50.318Z,90.75
2019-05-11T00:33:19.053Z,91.33
2019-05-11T00:35:47.982Z,91.31
2019-05-11T00:38:17.318Z,90.92
2019-05-11T00:40:46.034Z,90.49
2019-05-11T00:43:15.090Z,89.92
2019-05-11T00:45:45.290Z,89.01
2019-05-11T00:48:15.004Z,93.89
2019-05-11T00:50:43.561Z,94.63
2019-05-11T00:53:12.336Z,95.53
2019-05-11T00:55:41.392Z,95.83
2019-05-11T00:58:10.830Z,95.98
2019-05-11T01:00:39.513Z,98.12
2019-05-11T01:03:08.194Z,92.61
2019-05-11T01:05:36.860Z,90.46
2019-05-11T01:08:05.745Z,90.57
2019-05-11T01:10:42.089Z,91.16
2019-05-11T01:13:05.398Z,90.60
2019-05-11T01:15:34.088Z,90.88
2019-05-11T01:18:03.046Z,90.39
2019-05-11T01:20:33.141Z,93.30
2019-05-11T01:23:01.794Z,96.01
2019-05-11T01:25:30.814Z,95.38
2019-05-11T01:27:59.766Z,93.50
2019-05-11T01:30:28.802Z,92.69
2019-05-11T01:32:57.426Z,92.24
2019-05-11T01:35:26.261Z,91.37
2019-05-11T01:37:55.376Z,91.38
2019-05-11T01:40:24.363Z,90.77
2019-05-11T01:42:53.780Z,91.57
2019-05-11T01:45:22.668Z,91.11
2019-05-11T01:47:51.650Z,90.52
2019-05-11T01:50:20.334Z,90.48
2019-05-11T01:52:49.262Z,90.80
2019-05-11T01:55:17.695Z,91.13
2019-05-11T01:57:46.428Z,90.59
2019-05-11T02:00:15.148Z,90.28
2019-05-11T02:02:44.054Z,88.67
2019-05-11T02:05:28.832Z,89.51
2019-05-11T02:07:59.441Z,88.19
2019-05-11T02:10:28.693Z,90.35
2019-05-11T02:12:57.364Z,89.34
2019-05-11T02:15:26.684Z,90.53
2019-05-11T02:17:55.199Z,89.82
2019-05-11T02:20:24.578Z,90.46
2019-05-11T02:22:53.154Z,91.34
2019-05-11T02:25:21.669Z,91.51
2019-05-11T02:27:50.182Z,91.04
2019-05-11T02:30:19.383Z,90.31
2019-05-11T02:32:48.137Z,90.70
2019-05-11T02:35:16.791Z,90.91
2019-05-11T02:37:46.500Z,90.52
2019-05-11T02:40:16.019Z,91.48
2019-05-11T02:42:46.449Z,91.41
2019-05-11T02:45:20.191Z,90.29
2019-05-11T02:47:48.996Z,91.49
2019-05-11T02:50:18.010Z,93.96
2019-05-11T02:52:47.798Z,95.01
2019-05-11T02:55:16.405Z,96.31
2019-05-11T02:57:45.027Z,100.00
2019-05-11T03:00:17.869Z,100.00
2019-05-11T03:02:46.492Z,100.00
2019-05-11T03:05:18.040Z,100.00
2019-05-11T03:07:47.746Z,100.00
2019-05-11T03:10:16.917Z,100.00
2019-05-11T03:12:45.876Z,100.00
2019-05-11T03:15:14.997Z,100.00
2019-05-11T03:17:44.009Z,96.57
2019-05-11T03:20:13.021Z,96.68
2019-05-11T03:22:42.028Z,94.26
2019-05-11T03:25:11.302Z,93.91
2019-05-11T03:27:40.711Z,94.65
2019-05-11T03:30:09.982Z,93.44
2019-05-11T03:32:39.186Z,96.77
2019-05-11T03:35:09.120Z,96.81
2019-05-11T03:37:39.065Z,97.08
2019-05-11T03:40:09.193Z,96.96
2019-05-11T03:42:37.863Z,94.86
2019-05-11T03:45:08.203Z,94.73
2019-05-11T03:47:36.834Z,94.66
2019-05-11T03:50:06.040Z,92.72
2019-05-11T03:52:35.071Z,92.70
2019-05-11T03:55:03.977Z,90.80
2019-05-11T03:57:32.670Z,92.58
2019-05-11T04:00:01.579Z,91.81
2019-05-11T04:02:31.785Z,93.38
2019-05-11T04:05:00.853Z,94.40
2019-05-11T04:07:30.618Z,94.81
2019-05-11T04:09:59.837Z,93.97
2019-05-11T04:12:34.756Z,92.69
2019-05-11T04:14:59.145Z,92.77
2019-05-11T04:17:28.568Z,93.79
2019-05-11T04:19:58.558Z,94.17
2019-05-11T04:22:27.568Z,95.67
2019-05-11T04:24:56.301Z,94.77
2019-05-11T04:27:25.087Z,94.62
2019-05-11T04:29:53.992Z,93.78
2019-05-11T04:32:25.074Z,93.48
2019-05-11T04:34:53.772Z,94.47
2019-05-11T04:37:22.981Z,92.59
2019-05-11T04:39:52.252Z,93.04
2019-05-11T04:42:21.700Z,93.87
2019-05-11T04:44:52.404Z,92.81
2019-05-11T04:47:21.410Z,92.46
2019-05-11T04:49:50.131Z,92.28
2019-05-11T04:52:19.062Z,93.58
2019-05-11T04:54:48.979Z,94.03
2019-05-11T04:57:17.732Z,92.86
2019-05-11T04:59:46.438Z,91.79
2019-05-11T05:02:15.318Z,92.34
2019-05-11T05:04:44.273Z,93.83
2019-05-11T05:07:16.507Z,91.97
2019-05-11T05:09:44.770Z,90.95
2019-05-11T05:12:15.637Z,91.09
2019-05-11T05:14:44.518Z,90.58
2019-05-11T05:17:13.202Z,89.41
2019-05-11T05:19:42.158Z,88.84
2019-05-11T05:22:11.658Z,87.82
2019-05-11T05:24:41.274Z,87.84
2019-05-11T05:27:11.041Z,87.26
2019-05-11T05:29:40.321Z,86.27
2019-05-11T05:32:08.992Z,84.56
2019-05-11T05:34:37.768Z,83.68
2019-05-11T05:37:07.107Z,84.07
2019-05-11T05:39:37.013Z,83.79
2019-05-11T05:42:05.870Z,83.32
2019-05-11T05:44:34.635Z,83.92
2019-05-11T05:47:03.523Z,84.05
2019-05-11T05:49:32.583Z,83.05
2019-05-11T05:52:01.768Z,82.94
2019-05-11T05:54:30.824Z,81.82
2019-05-11T05:57:00.303Z,81.72
2019-05-11T05:59:29.120Z,80.62
2019-05-11T06:01:58.699Z,80.42
2019-05-11T06:04:28.287Z,80.52
2019-05-11T06:06:57.585Z,80.53
2019-05-11T06:09:29.972Z,80.08
2019-05-11T06:11:58.731Z,79.05
2019-05-11T06:14:29.738Z,79.03
2019-05-11T06:16:59.027Z,78.75
2019-05-11T06:19:28.047Z,79.74
2019-05-11T06:21:56.758Z,78.74
2019-05-11T06:24:26.289Z,78.38
2019-05-11T06:26:55.234Z,78.56
2019-05-11T06:29:25.491Z,77.16
2019-05-11T06:31:54.579Z,78.31
2019-05-11T06:34:25.922Z,78.14
2019-05-11T06:36:55.560Z,77.99
2019-05-11T06:39:24.749Z,77.54
2019-05-11T06:41:53.515Z,78.03
2019-05-11T06:44:22.822Z,77.02
2019-05-11T06:46:51.911Z,76.57
2019-05-11T06:49:20.980Z,77.19
2019-05-11T06:51:50.245Z,76.95
2019-05-11T06:54:19.598Z,76.96
2019-05-11T06:56:48.333Z,76.72
2019-05-11T06:59:17.180Z,76.38
2019-05-11T07:01:45.856Z,75.41
2019-05-11T07:04:14.976Z,76.36
2019-05-11T07:06:44.035Z,76.11
2019-05-11T07:09:13.424Z,74.63
2019-05-11T07:11:42.956Z,75.73
2019-05-11T07:14:20.493Z,75.81
2019-05-11T07:16:43.036Z,75.21
2019-05-11T07:19:14.889Z,73.78
2019-05-11T07:21:43.608Z,74.64
2019-05-11T07:24:15.255Z,74.19
2019-05-11T07:26:44.930Z,73.64
2019-05-11T07:29:14.137Z,73.02
2019-05-11T07:31:43.249Z,73.79
2019-05-11T07:34:18.373Z,72.64
2019-05-11T07:36:47.757Z,72.48
2019-05-11T07:39:18.656Z,73.46
2019-05-11T07:41:48.280Z,74.48
2019-05-11T07:44:19.100Z,73.70
2019-05-11T07:46:50.373Z,73.91
2019-05-11T07:49:23.207Z,73.92
2019-05-11T07:51:54.050Z,73.15
2019-05-11T07:54:23.661Z,72.46
2019-05-11T07:56:53.871Z,72.76
2019-05-11T07:59:23.344Z,73.15
2019-05-11T08:01:52.392Z,72.87
2019-05-11T08:04:23.906Z,72.57
2019-05-11T08:06:55.674Z,72.77
2019-05-11T08:09:28.067Z,71.41
2019-05-11T08:11:58.498Z,71.90
2019-05-11T08:14:31.332Z,71.65
2019-05-11T08:17:01.770Z,71.47
2019-05-11T08:19:30.908Z,71.60
2019-05-11T08:22:01.065Z,72.02
2019-05-11T08:24:42.517Z,71.98
2019-05-11T08:27:14.574Z,72.59
2019-05-11T08:29:44.716Z,71.98
2019-05-11T08:32:18.309Z,72.00
2019-05-11T08:34:49.062Z,71.39
2019-05-11T08:37:19.025Z,71.41
2019-05-11T08:39:48.295Z,71.32
2019-05-11T08:42:17.836Z,71.86
2019-05-11T08:44:48.302Z,72.32
2019-05-11T08:47:17.799Z,73.26
2019-05-11T08:49:48.478Z,74.43
2019-05-11T08:52:18.628Z,74.66
2019-05-11T08:54:48.767Z,74.13
2019-05-11T08:57:18.080Z,73.96
2019-05-11T08:59:48.460Z,73.89
2019-05-11T09:02:18.593Z,73.45
2019-05-11T09:04:48.474Z,74.07
2019-05-11T09:07:18.426Z,73.96
2019-05-11T09:09:48.399Z,75.00
2019-05-11T09:12:18.428Z,76.67
2019-05-11T09:14:47.816Z,76.47
2019-05-11T09:17:18.264Z,77.95
2019-05-11T09:19:48.051Z,77.80
2019-05-11T09:22:18.726Z,78.42
2019-05-11T09:24:47.877Z,80.00
2019-05-11T09:27:18.426Z,81.15
2019-05-11T09:29:49.100Z,81.70
2019-05-11T09:32:19.603Z,81.47
2019-05-11T09:34:48.567Z,82.79
2019-05-11T09:37:18.513Z,84.12
2019-05-11T09:39:49.868Z,82.14
2019-05-11T09:42:19.647Z,84.56
2019-05-11T09:44:48.638Z,84.72
2019-05-11T09:47:18.922Z,83.63
2019-05-11T09:49:50.658Z,84.68
2019-05-11T09:52:19.152Z,84.71
2019-05-11T09:54:50.313Z,84.96
2019-05-11T09:57:19.314Z,83.71
2019-05-11T09:59:51.251Z,84.54
2019-05-11T10:02:21.130Z,84.14
2019-05-11T10:04:50.025Z,83.62
2019-05-11T10:07:19.900Z,83.12
2019-05-11T10:09:49.266Z,86.01
2019-05-11T10:12:18.201Z,86.49
2019-05-11T10:14:48.585Z,87.56
2019-05-11T10:17:18.225Z,85.54
2019-05-11T10:19:49.522Z,86.29
2019-05-11T10:22:18.547Z,86.94
2019-05-11T10:24:48.295Z,87.21
2019-05-11T10:27:18.946Z,87.89
2019-05-11T10:29:48.341Z,88.40
2019-05-11T10:32:18.386Z,88.46
2019-05-11T10:34:47.954Z,88.07
2019-05-11T10:37:17.702Z,88.60
2019-05-11T10:39:48.823Z,87.34
2019-05-11T10:42:18.594Z,87.21
2019-05-11T10:44:47.939Z,86.92
2019-05-11T10:47:18.458Z,90.18
2019-05-11T10:49:48.471Z,92.11
2019-05-11T10:52:18.005Z,90.19
2019-05-11T10:54:47.804Z,89.19
2019-05-11T10:57:18.737Z,91.07
2019-05-11T10:59:48.901Z,89.72
2019-05-11T11:02:18.488Z,89.77
2019-05-11T11:04:49.753Z,90.04
2019-05-11T11:07:19.467Z,89.25
2019-05-11T11:09:49.153Z,89.75
2019-05-11T11:12:18.824Z,87.01
2019-05-11T11:14:48.291Z,89.30
2019-05-11T11:17:19.176Z,90.49
2019-05-11T11:19:48.848Z,89.15
2019-05-11T11:22:36.141Z,88.93
2019-05-11T11:24:48.522Z,89.36
2019-05-11T11:27:18.464Z,90.52
2019-05-11T11:29:47.651Z,92.11
2019-05-11T11:32:20.118Z,91.48
2019-05-11T11:34:49.063Z,90.94
2019-05-11T11:37:20.556Z,93.71
2019-05-11T11:39:49.458Z,91.02
2019-05-11T11:42:18.296Z,90.89
2019-05-11T11:44:48.343Z,89.78
2019-05-11T11:47:21.411Z,89.08
2019-05-11T11:49:48.748Z,90.51
2019-05-11T11:52:21.351Z,90.96
2019-05-11T11:54:52.919Z,91.05
2019-05-11T11:57:21.863Z,90.15
2019-05-11T11:59:50.980Z,90.36
2019-05-11T12:02:20.223Z,88.89
2019-05-11T12:04:49.137Z,87.74
2019-05-11T12:07:18.563Z,88.36
2019-05-11T12:12:24.630Z,87.23
2019-05-11T12:14:55.347Z,85.98
2019-05-11T12:17:28.474Z,85.05
2019-05-11T12:19:58.556Z,83.85
2019-05-11T12:22:29.182Z,84.88
2019-05-11T12:24:59.058Z,84.79
2019-05-11T12:27:30.852Z,86.54
2019-05-11T12:29:59.717Z,87.46
2019-05-11T12:32:45.616Z,84.60
2019-05-11T12:35:15.235Z,85.48
2019-05-11T12:37:48.508Z,84.71
2019-05-11T12:40:19.358Z,83.69
2019-05-11T12:42:49.318Z,84.61
2019-05-11T12:45:19.003Z,84.75
2019-05-11T12:47:48.510Z,84.99
2019-05-11T12:50:19.514Z,84.71
2019-05-11T12:52:49.233Z,85.62
2019-05-11T12:55:18.338Z,86.93
2019-05-11T12:57:48.188Z,86.38
2019-05-11T13:00:19.017Z,82.45
2019-05-11T13:02:48.651Z,85.34
2019-05-11T13:05:18.126Z,84.09
2019-05-11T13:07:48.152Z,84.33
2019-05-11T13:10:18.902Z,85.23
2019-05-11T13:12:49.450Z,84.91
2019-05-11T13:15:21.132Z,86.08
2019-05-11T13:17:51.667Z,85.46
2019-05-11T13:20:21.035Z,84.64
2019-05-11T13:22:50.158Z,86.16
2019-05-11T13:25:18.898Z,85.12
2019-05-11T13:27:49.346Z,86.18
2019-05-11T13:30:19.448Z,87.05
2019-05-11T13:32:49.379Z,85.97
2019-05-11T13:35:19.420Z,86.04
2019-05-11T13:37:48.377Z,86.13
2019-05-11T13:40:18.806Z,87.03
2019-05-11T13:42:49.272Z,85.79
2019-05-11T13:45:18.948Z,85.97
2019-05-11T13:47:55.269Z,86.94
2019-05-11T13:50:19.181Z,86.98
2019-05-11T13:52:52.810Z,86.08
2019-05-11T13:55:22.059Z,86.34
2019-05-11T13:57:51.340Z,85.75
2019-05-11T14:00:21.573Z,84.53
2019-05-11T14:02:50.790Z,84.29
2019-05-11T14:05:20.107Z,83.65
2019-05-11T14:07:49.116Z,84.32
2019-05-11T14:10:19.295Z,83.64
2019-05-11T14:12:48.570Z,83.30
2019-05-11T14:15:18.847Z,83.60
2019-05-11T14:17:48.786Z,81.02
2019-05-11T14:20:19.307Z,82.61
2019-05-11T14:22:48.895Z,84.23
2019-05-11T14:25:19.989Z,85.80
2019-05-11T14:27:49.173Z,84.84
2019-05-11T14:30:19.250Z,83.76
2019-05-11T14:32:48.691Z,82.63
2019-05-11T14:35:18.863Z,81.99
2019-05-11T14:37:48.786Z,81.75
2019-05-11T14:40:18.015Z,82.10
2019-05-11T14:42:48.967Z,81.37
2019-05-11T14:45:21.417Z,80.73
2019-05-11T14:47:50.449Z,78.98
2019-05-11T14:50:19.550Z,79.55
2019-05-11T14:52:49.371Z,79.55
2019-05-11T14:55:18.561Z,80.75
2019-05-11T14:57:48.639Z,81.46
2019-05-11T15:00:21.123Z,79.82
2019-05-11T15:02:50.180Z,79.71
2019-05-11T15:05:21.543Z,80.52
2019-05-11T15:07:52.833Z,78.96
2019-05-11T15:10:23.271Z,79.05
2019-05-11T15:12:52.096Z,78.82
2019-05-11T15:15:21.385Z,77.59
2019-05-11T15:17:50.894Z,77.86
2019-05-11T15:20:20.163Z,74.61
2019-05-11T15:22:49.122Z,75.27
2019-05-11T15:25:19.959Z,74.74
2019-05-11T15:27:52.373Z,73.88
2019-05-11T15:30:52.659Z,71.95
2019-05-11T15:34:01.633Z,74.17
2019-05-11T15:36:54.300Z,73.67
2019-05-11T15:39:54.434Z,72.64
2019-05-11T15:42:41.367Z,72.75
2019-05-11T15:45:27.535Z,70.61
2019-05-11T15:48:06.111Z,70.96
2019-05-11T15:50:48.628Z,70.14
2019-05-11T15:53:31.797Z,70.95
2019-05-11T15:56:31.410Z,70.23
2019-05-11T15:59:08.901Z,71.20
2019-05-11T16:01:45.528Z,67.37
2019-05-11T16:04:34.907Z,69.18
2019-05-11T16:07:20.275Z,67.87
2019-05-11T16:10:05.341Z,68.89
2019-05-11T16:12:48.346Z,69.15
2019-05-11T16:15:35.531Z,68.96
2019-05-11T16:21:21.682Z,69.29
2019-05-11T16:24:10.611Z,68.88
2019-05-11T16:27:28.444Z,69.84
2019-05-11T16:30:07.762Z,69.22
2019-05-11T16:33:04.451Z,68.99
2019-05-11T16:35:50.475Z,70.21
2019-05-11T16:38:43.424Z,69.36
2019-05-11T16:41:39.604Z,70.29
2019-05-11T16:44:48.320Z,70.34
2019-05-11T16:48:07.918Z,69.24
2019-05-11T16:51:04.271Z,69.29
2019-05-11T16:54:03.648Z,68.40
2019-05-11T16:57:22.369Z,70.19
2019-05-11T17:00:00.303Z,69.58
2019-05-11T17:02:49.069Z,69.15
2019-05-11T17:05:38.281Z,68.91
2019-05-11T17:09:13.331Z,69.58
2019-05-11T17:15:21.016Z,69.35
2019-05-11T17:18:15.855Z,69.45
2019-05-11T17:21:04.950Z,69.67
2019-05-11T17:24:18.358Z,69.11
2019-05-11T17:27:48.721Z,69.50
2019-05-11T17:30:39.017Z,68.94
2019-05-11T17:33:38.371Z,69.50
2019-05-11T17:36:37.550Z,70.11
2019-05-11T17:39:20.508Z,69.57
2019-05-11T17:42:21.463Z,69.98
2019-05-11T17:45:18.922Z,69.34
2019-05-11T17:55:00.423Z,69.29
2019-05-11T17:58:19.309Z,68.80
2019-05-11T18:04:20.074Z,71.12
2019-05-11T18:07:27.707Z,70.88
2019-05-11T18:13:45.327Z,69.24
2019-05-11T18:30:47.988Z,72.33
2019-05-11T18:33:34.639Z,72.18
2019-05-11T18:46:09.476Z,71.32
2019-05-11T18:48:38.765Z,71.66
2019-05-11T18:51:08.687Z,72.32
2019-05-11T18:53:37.748Z,72.72
2019-05-11T18:56:08.658Z,72.91
2019-05-11T18:58:38.399Z,73.41
2019-05-11T19:01:07.835Z,72.54
2019-05-11T19:03:38.477Z,73.44
2019-05-11T19:06:08.874Z,73.76
2019-05-11T19:08:38.470Z,73.53
2019-05-11T19:11:09.249Z,73.79
2019-05-11T19:13:38.805Z,73.85
2019-05-11T19:16:08.629Z,75.03
2019-05-11T19:18:38.783Z,74.71
2019-05-11T19:21:09.244Z,75.81
2019-05-11T19:23:38.112Z,75.16
2019-05-11T19:26:08.385Z,75.17
2019-05-11T19:28:38.519Z,74.96
2019-05-11T19:31:08.382Z,75.79
2019-05-11T19:33:39.090Z,75.46
2019-05-11T19:38:47.771Z,76.39
2019-05-11T19:43:57.705Z,77.17
2019-05-11T19:46:28.066Z,77.56
2019-05-11T19:48:57.937Z,78.33
2019-05-11T19:51:28.919Z,78.12
2019-05-11T19:53:57.636Z,79.09
2019-05-11T19:56:28.934Z,79.10
2019-05-11T19:58:58.096Z,78.99
2019-05-11T20:01:27.905Z,79.11
2019-05-11T20:03:57.212Z,79.09
2019-05-11T20:09:08.205Z,79.72
2019-05-11T20:11:38.365Z,80.70
2019-05-11T20:14:08.055Z,80.03
2019-05-11T20:19:18.770Z,80.51
2019-05-11T20:21:48.550Z,81.90
2019-05-11T20:24:18.653Z,82.68
2019-05-11T20:26:47.435Z,83.03
2019-05-11T20:29:16.462Z,82.93
2019-05-11T20:31:45.464Z,82.38
2019-05-11T20:36:53.821Z,83.60
2019-05-11T20:39:22.554Z,83.38
2019-05-11T20:41:51.180Z,82.14
2019-05-11T20:44:19.781Z,81.80
2019-05-11T20:46:48.833Z,81.77
2019-05-11T20:49:17.442Z,81.74
2019-05-11T20:51:48.364Z,80.91
2019-05-11T20:54:17.651Z,82.07
2019-05-11T20:59:28.779Z,79.47
2019-05-11T21:01:58.685Z,79.01
2019-05-11T21:04:28.419Z,77.53
2019-05-11T21:06:58.099Z,75.87
2019-05-11T21:09:28.731Z,74.52
2019-05-11T21:11:58.792Z,74.65
2019-05-11T21:14:28.809Z,73.69
2019-05-11T21:16:58.630Z,72.07
2019-05-11T21:19:28.330Z,69.81
2019-05-11T21:21:59.045Z,68.50
2019-05-11T21:24:28.116Z,68.45
2019-05-11T21:26:58.475Z,68.99
2019-05-11T21:29:31.277Z,68.31
2019-05-11T21:31:59.101Z,67.35
2019-05-11T21:34:28.219Z,67.07
2019-05-11T21:36:57.721Z,67.35
2019-05-11T21:39:28.731Z,66.40
2019-05-11T21:44:37.202Z,65.16
2019-05-11T21:47:07.717Z,64.38
2019-05-11T21:49:37.826Z,65.24
2019-05-11T21:52:07.807Z,67.69
2019-05-11T21:54:38.672Z,69.40
2019-05-11T21:57:08.242Z,69.77
2019-05-11T21:59:37.950Z,70.41
2019-05-11T22:02:10.645Z,70.64
2019-05-11T22:04:38.868Z,70.33
2019-05-11T22:07:08.218Z,70.63
2019-05-11T22:09:38.384Z,70.89
2019-05-11T22:12:07.836Z,71.26
2019-05-11T22:14:38.473Z,71.50
2019-05-11T22:17:07.818Z,70.33
2019-05-11T22:19:40.265Z,70.22
2019-05-11T22:22:20.663Z,69.64
2019-05-11T22:24:37.784Z,69.93
2019-05-11T22:27:07.990Z,70.82
2019-05-11T22:29:37.869Z,71.71
2019-05-11T22:32:07.181Z,73.63
2019-05-11T22:34:37.856Z,74.11
2019-05-11T22:37:08.629Z,74.64
2019-05-11T22:39:38.131Z,75.05
2019-05-11T22:42:07.904Z,76.21
2019-05-11T22:44:38.611Z,76.96
2019-05-11T22:47:08.942Z,76.86
2019-05-11T22:49:38.091Z,76.97
2019-05-11T22:52:08.626Z,77.61
2019-05-11T22:54:38.424Z,77.58
2019-05-11T22:57:08.185Z,77.61
2019-05-11T22:59:38.496Z,78.63
2019-05-11T23:02:10.720Z,79.62
2019-05-11T23:04:38.992Z,79.96
2019-05-11T23:07:08.075Z,80.05
2019-05-11T23:09:38.121Z,80.39
2019-05-11T23:12:09.086Z,80.96
2019-05-11T23:14:37.808Z,81.75
2019-05-11T23:17:08.119Z,81.93
2019-05-11T23:19:39.300Z,82.34
2019-05-11T23:22:09.942Z,82.70
2019-05-11T23:24:39.890Z,82.90
2019-05-11T23:27:08.940Z,83.03
2019-05-11T23:29:38.412Z,83.95
2019-05-11T23:32:08.631Z,84.36
2019-05-11T23:34:38.809Z,83.29
2019-05-11T23:37:08.009Z,85.21
2019-05-11T23:39:38.760Z,84.74
2019-05-11T23:42:08.180Z,85.37
2019-05-11T23:44:37.429Z,85.64
2019-05-11T23:47:06.034Z,86.16
2019-05-11T23:49:34.629Z,86.01
2019-05-11T23:52:03.611Z,87.29
2019-05-11T23:54:33.166Z,88.14
2019-05-11T23:57:02.067Z,87.63
